Weldona, Colorado
Current Conditions -  °F | °C
As of 4:35 AM on Thursday 18 Dec 2014 (Local Time) from KFMM Reporting Station
Clear Clear  
Wind Chill: 10°   Ceiling: Unl
Heat Index: 20°   Visibility: 10mi
Dew Point: 15°   Wind: 9mph
Humidity: 80%   Direction: 280°W
Pressure: 30"   Gusts: NA
Location:  40.35°N, 103.97°W
Report Text: KFMM 181135Z AUTO 28008KT 10SM CLR M07/M10 A3000 RMK AO2 T10661096
Loading
Personal Weather Stations






























Interactive Weather Map New forecast layout! Learn more

10-Day Weather Forecast

Advertisements
Track Severe Weather on mobile